Time;durP1;ratioP1;P1;durP2;ratioP2;P2;SDS_P1;SDS_P2;PMS_P1;PMS_P2;Temp;Humidity;BMP_temperature;BMP_pressure;BME280_temperature;BME280_humidity;BME280_pressure;Samples;Min_cycle;Max_cycle;Signal;HPM_P1;HPM_P2
2021/09/14 00:00:42;;;;;;;1.95;1.60;;;20.80;71.80;;;;;;4193033;28;20059;-62
2021/09/14 00:03:05;;;;;;;1.95;1.55;;;20.80;71.40;;;;;;4192963;28;20763;-62
2021/09/14 00:05:27;;;;;;;1.92;1.60;;;20.80;71.60;;;;;;4192967;28;20036;-61
2021/09/14 00:07:49;;;;;;;1.88;1.42;;;20.70;71.50;;;;;;4192976;28;20041;-61
2021/09/14 00:10:11;;;;;;;1.63;1.52;;;20.80;71.20;;;;;;4193189;28;20495;-61
2021/09/14 00:12:35;;;;;;;1.90;1.33;;;20.80;71.40;;;;;;4159911;28;20065;-62
2021/09/14 00:14:57;;;;;;;2.97;1.95;;;20.70;71.30;;;;;;4173489;28;20098;-62
2021/09/14 00:17:20;;;;;;;1.90;1.60;;;20.70;71.80;;;;;;4192857;28;20051;-62
2021/09/14 00:19:42;;;;;;;1.63;1.52;;;20.70;71.70;;;;;;4176054;28;20049;-62
2021/09/14 00:22:04;;;;;;;3.85;1.55;;;20.70;71.90;;;;;;4175826;28;20550;-62
2021/09/14 00:24:26;;;;;;;2.65;1.50;;;20.70;71.90;;;;;;4175787;28;20056;-61
2021/09/14 00:26:48;;;;;;;1.73;1.63;;;20.70;71.90;;;;;;4192131;28;20078;-62
2021/09/14 00:29:12;;;;;;;1.58;1.45;;;20.70;71.90;;;;;;4179803;28;20052;-62
2021/09/14 00:31:34;;;;;;;1.50;1.40;;;20.70;71.80;;;;;;4175134;28;20052;-62
2021/09/14 00:33:56;;;;;;;1.52;1.42;;;20.70;72.20;;;;;;4174088;28;20052;-62
2021/09/14 00:36:18;;;;;;;1.50;1.40;;;20.70;72.10;;;;;;4175967;28;20396;-62
2021/09/14 00:38:40;;;;;;;1.70;1.60;;;20.70;72.10;;;;;;4175699;28;20072;-61
2021/09/14 00:41:02;;;;;;;1.50;1.40;;;20.70;72.00;;;;;;4191930;28;20139;-62
2021/09/14 00:43:25;;;;;;;1.60;1.20;;;20.70;71.90;;;;;;4192230;28;20079;-62
2021/09/14 00:45:49;;;;;;;4.15;1.60;;;20.70;72.00;;;;;;4192155;28;20044;-62
2021/09/14 00:48:11;;;;;;;3.20;1.77;;;20.70;71.90;;;;;;4190712;28;20573;-62
2021/09/14 00:50:35;;;;;;;1.63;1.45;;;20.70;72.00;;;;;;4190772;28;20045;-62
2021/09/14 00:52:57;;;;;;;2.25;1.70;;;20.60;71.80;;;;;;4175550;28;20067;-62
2021/09/14 00:55:20;;;;;;;1.77;1.55;;;20.60;71.90;;;;;;4173954;28;20529;-62
2021/09/14 00:57:44;;;;;;;1.83;1.70;;;20.60;71.90;;;;;;4161168;28;20045;-62
2021/09/14 01:00:08;;;;;;;1.95;1.80;;;20.60;72.00;;;;;;4174414;28;20049;-62
2021/09/14 01:02:31;;;;;;;3.30;1.70;;;20.60;72.00;;;;;;4185825;28;20090;-62
2021/09/14 01:04:53;;;;;;;2.10;1.70;;;20.60;71.80;;;;;;4176680;28;20100;-62
2021/09/14 01:07:15;;;;;;;1.85;1.75;;;20.60;71.40;;;;;;4169247;28;20049;-62
2021/09/14 01:09:38;;;;;;;2.92;2.10;;;20.60;71.20;;;;;;4173836;28;20135;-62
2021/09/14 01:12:00;;;;;;;2.25;2.05;;;20.60;71.20;;;;;;4181641;28;20490;-62
2021/09/14 01:14:23;;;;;;;2.70;1.98;;;20.60;71.60;;;;;;4189890;28;20052;-62
2021/09/14 01:16:46;;;;;;;2.35;1.85;;;20.60;71.90;;;;;;4190532;28;20076;-60
2021/09/14 01:19:11;;;;;;;3.20;1.80;;;20.60;72.10;;;;;;4190362;28;20469;-62
2021/09/14 01:21:34;;;;;;;2.20;1.77;;;20.60;71.80;;;;;;4191210;28;20047;-62
2021/09/14 01:23:58;;;;;;;3.72;1.83;;;20.60;71.90;;;;;;4191825;28;20052;-62
2021/09/14 01:26:22;;;;;;;4.65;1.85;;;20.50;71.70;;;;;;4190433;28;20044;-62
2021/09/14 01:28:45;;;;;;;2.58;2.35;;;20.50;72.00;;;;;;4190251;28;20080;-61
2021/09/14 01:31:08;;;;;;;3.10;1.85;;;20.50;71.90;;;;;;4190281;28;20082;-62
2021/09/14 01:33:30;;;;;;;2.47;2.22;;;20.50;71.90;;;;;;4191161;28;20048;-62
2021/09/14 01:35:54;;;;;;;4.85;2.03;;;20.50;71.90;;;;;;4189702;28;20106;-62
2021/09/14 01:38:16;;;;;;;3.13;2.10;;;20.50;72.00;;;;;;4191688;28;20728;-62
2021/09/14 01:40:46;;;;;;;4.03;2.00;;;20.50;72.00;;;;;;4189207;28;20061;-62
2021/09/14 01:43:09;;;;;;;2.53;1.88;;;20.50;72.00;;;;;;4190183;28;20049;-62
2021/09/14 01:45:32;;;;;;;2.47;2.28;;;20.50;72.30;;;;;;4190101;28;20049;-62
2021/09/14 01:47:57;;;;;;;2.55;2.35;;;20.50;72.10;;;;;;4183204;28;20063;-62
2021/09/14 01:50:19;;;;;;;2.05;1.70;;;20.50;72.20;;;;;;4189335;28;20049;-61
2021/09/14 01:52:41;;;;;;;2.38;2.13;;;20.50;72.10;;;;;;4180054;28;20040;-62
2021/09/14 01:55:05;;;;;;;3.47;2.25;;;20.50;72.20;;;;;;4189944;28;20060;-62
2021/09/14 01:57:32;;;;;;;3.03;2.30;;;20.40;72.00;;;;;;4189869;28;20052;-62
2021/09/14 01:59:56;;;;;;;3.58;2.35;;;20.40;71.70;;;;;;4188005;28;20127;-62
2021/09/14 02:02:24;;;;;;;2.30;2.10;;;20.40;71.90;;;;;;4189681;28;20059;-62
2021/09/14 02:04:51;;;;;;;4.57;2.45;;;20.40;72.10;;;;;;4184445;28;20100;-62
2021/09/14 02:07:29;;;;;;;3.47;2.60;;;20.40;71.80;;;;;;4168835;28;20526;-62
2021/09/14 02:40:10;;;;;;;3.72;2.33;;;20.30;73.70;;;;;;4174019;28;20095;-62
2021/09/14 02:42:59;;;;;;;2.50;2.40;;;20.30;73.80;;;;;;4189480;28;20096;-63
2021/09/14 02:56:25;;;;;;;2.20;2.00;;;20.30;74.30;;;;;;4192591;28;20059;-62
2021/09/14 02:58:46;;;;;;;2.85;2.20;;;20.30;74.40;;;;;;4189837;28;20123;-62
2021/09/14 03:01:12;;;;;;;2.67;2.45;;;20.30;74.40;;;;;;4175766;28;20098;-62
2021/09/14 03:03:35;;;;;;;2.00;1.90;;;20.30;74.30;;;;;;4175802;28;20077;-61
2021/09/14 03:05:59;;;;;;;3.45;2.10;;;20.30;74.30;;;;;;4159237;28;20080;-62
2021/09/14 03:08:22;;;;;;;3.22;2.35;;;20.30;74.10;;;;;;4159461;28;20049;-62
2021/09/14 03:10:44;;;;;;;2.78;2.58;;;20.30;74.10;;;;;;4191446;28;20470;-62
2021/09/14 03:13:07;;;;;;;3.90;2.42;;;20.30;73.80;;;;;;4191037;28;20525;-62
2021/09/14 03:15:29;;;;;;;2.85;2.65;;;20.30;74.00;;;;;;4175706;28;20044;-62
2021/09/14 03:17:54;;;;;;;3.58;2.28;;;20.30;73.60;;;;;;4175727;28;20519;-62
2021/09/14 03:20:16;;;;;;;3.00;2.60;;;20.20;72.90;;;;;;4177202;28;20045;-62
2021/09/14 03:22:38;;;;;;;3.55;2.45;;;20.20;72.80;;;;;;4176954;28;20049;-62
2021/09/14 03:25:00;;;;;;;2.80;2.55;;;20.30;73.00;;;;;;4177024;28;20144;-63
2021/09/14 03:27:22;;;;;;;2.47;2.28;;;20.20;73.30;;;;;;4175653;28;20132;-62
2021/09/14 03:29:44;;;;;;;2.78;2.38;;;20.20;73.30;;;;;;4174327;28;20126;-62
2021/09/14 03:32:07;;;;;;;5.03;3.25;;;20.20;73.10;;;;;;4176311;28;20545;-61
2021/09/14 03:34:30;;;;;;;4.30;2.53;;;20.20;73.40;;;;;;4176355;28;20053;-62
2021/09/14 03:36:52;;;;;;;4.80;2.90;;;20.20;73.80;;;;;;4174776;28;20261;-62
2021/09/14 03:39:14;;;;;;;2.40;2.30;;;20.20;73.70;;;;;;4174452;28;20048;-62
2021/09/14 03:41:37;;;;;;;2.47;2.05;;;20.20;74.20;;;;;;4175117;28;20053;-62
2021/09/14 03:43:59;;;;;;;2.60;2.40;;;20.20;74.20;;;;;;4175277;28;20053;-62
2021/09/14 03:46:22;;;;;;;4.40;2.35;;;20.20;74.50;;;;;;4174920;28;20075;-62
2021/09/14 03:48:44;;;;;;;3.03;2.20;;;20.20;74.80;;;;;;4175207;28;20049;-62
2021/09/14 03:51:07;;;;;;;4.05;2.45;;;20.20;75.00;;;;;;4158951;28;20049;-62
2021/09/14 03:53:30;;;;;;;2.25;2.00;;;20.10;74.70;;;;;;4167051;28;20132;-61
2021/09/14 03:55:52;;;;;;;2.70;2.42;;;20.10;74.90;;;;;;4175236;28;20501;-61
2021/09/14 03:58:14;;;;;;;2.97;2.78;;;20.20;74.90;;;;;;4192175;28;20422;-61
2021/09/14 04:00:37;;;;;;;2.40;2.20;;;20.20;74.60;;;;;;4174858;28;20139;-62
2021/09/14 04:03:15;;;;;;;3.45;2.45;;;20.20;74.20;;;;;;4176146;28;20087;-62
2021/09/14 04:05:45;;;;;;;3.47;2.42;;;20.20;74.60;;;;;;4186114;28;20045;-62
2021/09/14 04:10:49;;;;;;;2.42;2.30;;;20.20;74.00;;;;;;4189594;28;20052;-61
2021/09/14 04:13:13;;;;;;;2.75;2.35;;;20.10;74.40;;;;;;4185786;28;20041;-61
2021/09/14 04:15:35;;;;;;;3.88;2.47;;;20.10;74.60;;;;;;4181877;28;20128;-60
2021/09/14 04:18:02;;;;;;;2.45;2.30;;;20.10;74.70;;;;;;4190926;28;20422;-61
2021/09/14 04:20:25;;;;;;;2.45;2.25;;;20.10;74.20;;;;;;4181773;28;20048;-61
2021/09/14 04:22:49;;;;;;;3.33;2.25;;;20.10;74.10;;;;;;4189809;28;20044;-60
2021/09/14 04:25:13;;;;;;;4.90;2.60;;;20.10;74.20;;;;;;4178133;28;20040;-60
2021/09/14 04:27:35;;;;;;;3.20;2.20;;;20.10;73.90;;;;;;4192821;28;20499;-59
2021/09/14 04:29:57;;;;;;;4.72;2.35;;;20.10;74.60;;;;;;4192554;28;20568;-60
2021/09/14 04:32:20;;;;;;;2.92;1.95;;;20.10;75.00;;;;;;4191110;28;20090;-60
2021/09/14 04:34:43;;;;;;;2.60;2.40;;;20.10;75.20;;;;;;4191247;28;20071;-61
2021/09/14 04:37:05;;;;;;;3.50;2.80;;;20.10;75.50;;;;;;4192294;28;20102;-60
2021/09/14 04:39:27;;;;;;;3.78;2.42;;;20.10;75.50;;;;;;4190532;28;20219;-60
2021/09/14 04:41:51;;;;;;;2.78;2.55;;;20.10;75.40;;;;;;4191225;28;20136;-60
2021/09/14 04:44:14;;;;;;;4.13;2.42;;;20.10;75.50;;;;;;4191336;28;20127;-61
2021/09/14 04:46:36;;;;;;;2.45;2.25;;;20.10;75.50;;;;;;4190563;28;20078;-61
2021/09/14 04:48:59;;;;;;;3.65;2.33;;;20.10;75.40;;;;;;4190851;28;20056;-61
2021/09/14 04:51:21;;;;;;;3.45;1.95;;;20.10;75.30;;;;;;4174219;28;20041;-60
2021/09/14 04:53:43;;;;;;;3.33;2.47;;;20.10;75.20;;;;;;4186946;28;20056;-61
2021/09/14 04:56:06;;;;;;;2.20;2.10;;;20.10;75.10;;;;;;4190496;28;20041;-63
2021/09/14 04:58:32;;;;;;;3.25;2.63;;;20.10;75.20;;;;;;4191359;28;20041;-60
2021/09/14 05:00:56;;;;;;;3.00;1.95;;;20.10;75.20;;;;;;4190220;28;20044;-63
2021/09/14 05:03:19;;;;;;;2.40;2.20;;;20.10;75.20;;;;;;4190802;28;20048;-60
2021/09/14 05:05:41;;;;;;;3.35;2.50;;;20.10;74.70;;;;;;4191034;28;20056;-61
2021/09/14 05:08:04;;;;;;;4.50;2.55;;;20.10;74.60;;;;;;4190649;28;20052;-62
2021/09/14 05:10:29;;;;;;;2.55;2.33;;;20.10;74.40;;;;;;4181052;28;20040;-62
2021/09/14 05:12:50;;;;;;;2.38;2.20;;;20.10;74.80;;;;;;4173662;28;20048;-62
2021/09/14 05:15:14;;;;;;;3.53;2.58;;;20.10;75.00;;;;;;4178578;28;20048;-62
2021/09/14 05:18:09;;;;;;;4.65;2.75;;;20.10;74.20;;;;;;4174924;28;20506;-61
2021/09/14 05:20:38;;;;;;;2.88;2.20;;;20.10;74.10;;;;;;4187479;28;20049;-60
2021/09/14 05:23:11;;;;;;;2.67;2.30;;;20.10;73.90;;;;;;4176208;28;20643;-61
2021/09/14 05:25:33;;;;;;;2.83;2.63;;;20.10;73.50;;;;;;4173594;28;20640;-60
2021/09/14 05:27:55;;;;;;;4.43;2.47;;;20.10;73.50;;;;;;4175083;28;20498;-59
2021/09/14 05:30:19;;;;;;;5.80;2.42;;;20.10;73.70;;;;;;4174964;28;20053;-61
2021/09/14 05:32:41;;;;;;;2.50;2.30;;;20.10;73.30;;;;;;4190571;28;20704;-59
2021/09/14 05:35:03;;;;;;;4.03;2.50;;;20.10;73.60;;;;;;4173454;28;20616;-59
2021/09/14 05:37:26;;;;;;;2.65;2.45;;;20.10;73.60;;;;;;4165717;28;20061;-58
2021/09/14 05:39:48;;;;;;;3.65;2.17;;;20.10;73.60;;;;;;4166268;28;20048;-57
2021/09/14 05:42:10;;;;;;;2.42;2.33;;;20.10;73.70;;;;;;4173760;28;20059;-59
2021/09/14 05:44:34;;;;;;;3.65;2.28;;;20.00;73.50;;;;;;4174827;28;20048;-59
2021/09/14 05:46:59;;;;;;;3.20;2.35;;;20.00;73.80;;;;;;4173403;28;20508;-58
2021/09/14 05:49:21;;;;;;;4.13;2.40;;;20.00;73.70;;;;;;4182156;28;20064;-59
2021/09/14 05:51:43;;;;;;;4.68;2.08;;;20.00;73.30;;;;;;4189825;28;20452;-59
2021/09/14 05:54:05;;;;;;;3.75;2.50;;;20.00;73.90;;;;;;4190107;28;20474;-58
2021/09/14 05:56:32;;;;;;;2.75;2.30;;;20.00;74.40;;;;;;4189758;28;20842;-58
2021/09/14 05:59:02;;;;;;;4.10;2.47;;;20.00;74.10;;;;;;4189171;28;20059;-60
2021/09/14 06:01:24;;;;;;;3.35;2.50;;;20.00;73.80;;;;;;4190067;28;20589;-59
2021/09/14 06:03:48;;;;;;;5.75;2.53;;;20.00;74.40;;;;;;4189600;28;20910;-60
2021/09/14 06:06:10;;;;;;;5.38;3.08;;;19.90;74.60;;;;;;4191124;28;20209;-60
2021/09/14 06:08:32;;;;;;;6.53;2.25;;;19.90;74.50;;;;;;4190988;28;20080;-59
2021/09/14 06:10:54;;;;;;;7.70;3.20;;;19.90;74.10;;;;;;4189045;28;20446;-60
2021/09/14 06:13:16;;;;;;;3.08;2.60;;;20.00;74.40;;;;;;4191363;28;20132;-60
2021/09/14 06:15:39;;;;;;;2.72;2.30;;;19.90;74.60;;;;;;4189869;28;21871;-59
2021/09/14 06:18:02;;;;;;;4.53;2.38;;;19.90;74.60;;;;;;4175970;28;20056;-59
2021/09/14 06:20:29;;;;;;;2.60;2.40;;;19.90;73.80;;;;;;4188820;28;20052;-60
2021/09/14 06:22:51;;;;;;;7.13;2.85;;;19.90;74.00;;;;;;4191620;28;20056;-60
2021/09/14 06:25:13;;;;;;;3.10;2.47;;;19.90;74.20;;;;;;4176430;28;20053;-60
2021/09/14 06:27:36;;;;;;;3.25;2.90;;;19.90;74.00;;;;;;4190337;28;20048;-62
2021/09/14 06:29:58;;;;;;;2.83;2.63;;;19.90;73.40;;;;;;4193843;28;20080;-60
2021/09/14 06:32:20;;;;;;;3.35;2.70;;;19.90;73.40;;;;;;4194132;28;20091;-60
2021/09/14 06:34:51;;;;;;;2.63;2.10;;;19.90;73.10;;;;;;4193864;28;20044;-59
2021/09/14 06:37:14;;;;;;;3.35;2.53;;;19.90;73.60;;;;;;4193354;28;20094;-59
2021/09/14 06:39:36;;;;;;;3.45;2.50;;;19.90;73.40;;;;;;4190925;28;20946;-59
2021/09/14 06:41:58;;;;;;;4.63;2.58;;;19.90;72.50;;;;;;4192943;28;20060;-61
2021/09/14 06:44:21;;;;;;;5.43;2.42;;;19.80;73.20;;;;;;4176458;28;20655;-59
2021/09/14 06:46:49;;;;;;;3.80;2.80;;;19.80;72.70;;;;;;4175687;28;20126;-61
2021/09/14 06:49:12;;;;;;;3.60;2.63;;;19.80;74.00;;;;;;4174437;28;20423;-60
2021/09/14 06:51:34;;;;;;;3.20;2.35;;;19.80;73.50;;;;;;4177255;28;20049;-59
2021/09/14 06:53:58;;;;;;;4.05;2.33;;;19.80;73.90;;;;;;4179088;28;20569;-59
2021/09/14 06:56:20;;;;;;;3.60;2.63;;;19.80;74.30;;;;;;4177673;28;20068;-59
2021/09/14 06:58:42;;;;;;;3.55;2.22;;;19.80;74.40;;;;;;4176003;28;20071;-59
2021/09/14 07:01:05;;;;;;;4.40;2.97;;;19.80;74.20;;;;;;4193907;28;20049;-58
2021/09/14 07:03:27;;;;;;;3.75;2.40;;;19.80;74.10;;;;;;4193693;28;20117;-59
2021/09/14 07:05:50;;;;;;;3.20;2.65;;;19.80;74.80;;;;;;4193917;28;20086;-60
2021/09/14 07:08:13;;;;;;;2.97;2.50;;;19.80;74.90;;;;;;4192901;28;20411;-59
2021/09/14 07:10:36;;;;;;;4.20;3.15;;;19.80;75.00;;;;;;4191990;28;20534;-60
2021/09/14 07:12:58;;;;;;;3.38;2.60;;;19.80;74.40;;;;;;4193857;28;20056;-59
2021/09/14 07:15:20;;;;;;;4.53;2.72;;;19.80;74.40;;;;;;4193449;28;20036;-60
2021/09/14 07:17:43;;;;;;;6.97;3.10;;;19.80;74.80;;;;;;4193578;28;20102;-62
2021/09/14 07:20:07;;;;;;;2.97;2.40;;;19.90;74.90;;;;;;4193704;28;20048;-61
2021/09/14 07:22:29;;;;;;;3.85;2.55;;;19.90;75.60;;;;;;4181482;28;20045;-60
2021/09/14 07:24:51;;;;;;;5.65;2.63;;;19.90;74.60;;;;;;4189754;28;20051;-61
2021/09/14 07:27:15;;;;;;;4.07;2.63;;;20.00;74.60;;;;;;4193660;28;20542;-60
2021/09/14 07:29:37;;;;;;;3.13;2.80;;;20.00;74.40;;;;;;4175971;28;20037;-60
2021/09/14 07:31:59;;;;;;;4.10;2.88;;;20.10;74.70;;;;;;4176319;28;20477;-60
2021/09/14 07:34:21;;;;;;;4.10;2.75;;;20.10;75.20;;;;;;4174777;28;20061;-62
2021/09/14 07:36:43;;;;;;;6.05;3.42;;;20.10;75.60;;;;;;4187795;28;20044;-61
2021/09/14 07:39:06;;;;;;;3.58;3.28;;;20.20;75.00;;;;;;4186023;28;20048;-61
2021/09/14 07:41:28;;;;;;;3.60;3.30;;;20.20;74.90;;;;;;4171076;28;20100;-62
2021/09/14 07:43:51;;;;;;;4.30;2.90;;;20.20;74.80;;;;;;4188671;28;20119;-62
2021/09/14 07:46:13;;;;;;;11.30;3.45;;;20.30;74.60;;;;;;4176959;28;20095;-62
2021/09/14 07:48:35;;;;;;;4.07;3.38;;;20.30;74.50;;;;;;4176496;28;20507;-61
2021/09/14 07:50:57;;;;;;;3.42;3.15;;;20.40;74.70;;;;;;4193046;28;20052;-61
2021/09/14 07:53:20;;;;;;;3.95;3.53;;;20.40;74.60;;;;;;4176270;28;20044;-62
2021/09/14 07:55:41;;;;;;;3.67;3.30;;;20.40;74.30;;;;;;4159921;28;20045;-61
2021/09/14 07:58:03;;;;;;;6.20;3.67;;;20.50;74.20;;;;;;4174868;28;20069;-61
2021/09/14 08:00:27;;;;;;;4.05;3.60;;;20.50;74.10;;;;;;4176489;28;20076;-61
2021/09/14 08:02:57;;;;;;;3.53;3.25;;;20.60;74.30;;;;;;4176354;28;20453;-61
2021/09/14 08:05:19;;;;;;;5.13;3.55;;;20.60;74.40;;;;;;4178277;28;20493;-61
2021/09/14 08:07:41;;;;;;;4.13;3.70;;;20.60;74.50;;;;;;4192388;28;20192;-62
2021/09/14 08:10:04;;;;;;;4.70;4.07;;;20.60;74.60;;;;;;4184599;28;20143;-62
2021/09/14 08:12:26;;;;;;;5.80;4.30;;;20.70;74.50;;;;;;4174984;28;20104;-61
2021/09/14 08:14:48;;;;;;;4.18;3.88;;;20.70;74.60;;;;;;4176248;28;20418;-59
2021/09/14 08:17:15;;;;;;;4.22;3.83;;;20.80;74.50;;;;;;4175962;28;20052;-61
2021/09/14 08:19:41;;;;;;;4.88;4.35;;;20.80;74.70;;;;;;4176468;28;20072;-61
2021/09/14 08:22:03;;;;;;;4.20;3.80;;;20.80;74.70;;;;;;4176096;28;20499;-61
2021/09/14 08:24:25;;;;;;;4.40;3.60;;;20.90;75.00;;;;;;4176066;28;20041;-62
2021/09/14 08:26:47;;;;;;;4.68;4.32;;;20.90;75.10;;;;;;4176400;28;20411;-61
2021/09/14 08:29:11;;;;;;;5.72;4.13;;;20.90;75.30;;;;;;4174362;28;20052;-61
2021/09/14 08:31:34;;;;;;;5.07;4.50;;;20.90;75.10;;;;;;4175967;28;20529;-62
2021/09/14 08:33:57;;;;;;;5.30;4.80;;;21.00;75.30;;;;;;4176062;28;20053;-62
2021/09/14 08:36:19;;;;;;;4.55;4.20;;;21.00;75.10;;;;;;4176008;28;20049;-63
2021/09/14 08:38:42;;;;;;;5.32;4.22;;;21.00;75.20;;;;;;4175786;28;20103;-61
2021/09/14 08:41:04;;;;;;;5.47;4.80;;;21.10;75.40;;;;;;4176062;28;20060;-62
2021/09/14 08:43:26;;;;;;;6.10;4.78;;;21.10;75.30;;;;;;4192577;28;20386;-62
2021/09/14 08:45:48;;;;;;;6.57;4.95;;;21.10;76.10;;;;;;4192054;28;20060;-62
2021/09/14 08:48:19;;;;;;;6.03;5.43;;;21.10;75.40;;;;;;4186801;28;20048;-63
2021/09/14 08:50:43;;;;;;;5.53;5.03;;;21.20;75.60;;;;;;4191442;28;20052;-62
2021/09/14 08:53:06;;;;;;;5.93;5.35;;;21.20;75.60;;;;;;4193851;28;20048;-61
2021/09/14 08:55:29;;;;;;;8.32;5.90;;;21.20;75.60;;;;;;4191738;28;20056;-60
2021/09/14 08:57:53;;;;;;;5.97;5.38;;;21.20;76.10;;;;;;4190296;28;20479;-62
2021/09/14 09:00:15;;;;;;;5.80;4.97;;;21.30;75.90;;;;;;4190049;28;20048;-61
2021/09/14 09:02:37;;;;;;;7.57;6.45;;;21.30;75.50;;;;;;4175103;28;20049;-62
2021/09/14 09:05:02;;;;;;;6.13;5.57;;;21.30;75.60;;;;;;4174559;28;20080;-61
2021/09/14 09:07:33;;;;;;;5.95;5.45;;;21.30;75.40;;;;;;4174801;28;20131;-60
2021/09/14 09:09:55;;;;;;;6.28;5.78;;;21.30;75.70;;;;;;4190285;28;20505;-61
2021/09/14 09:12:21;;;;;;;5.75;5.22;;;21.40;75.50;;;;;;4176678;28;20052;-61
2021/09/14 09:14:47;;;;;;;6.18;5.63;;;21.40;75.70;;;;;;4177032;28;20102;-60
2021/09/14 09:17:12;;;;;;;6.53;5.93;;;21.40;75.90;;;;;;4188343;28;20052;-60
2021/09/14 09:19:35;;;;;;;7.18;6.40;;;21.40;75.70;;;;;;4174752;28;20049;-60
2021/09/14 09:22:00;;;;;;;7.50;5.93;;;21.50;75.80;;;;;;4158991;28;20554;-60
2021/09/14 09:24:23;;;;;;;7.13;6.35;;;21.50;75.60;;;;;;4158873;28;20443;-60
2021/09/14 09:26:46;;;;;;;6.93;6.22;;;21.50;75.30;;;;;;4159907;28;20481;-62
2021/09/14 09:29:10;;;;;;;6.07;5.57;;;21.50;74.70;;;;;;4174903;28;20037;-59
2021/09/14 09:31:32;;;;;;;7.20;5.95;;;21.60;75.00;;;;;;4174785;28;20044;-60
2021/09/14 09:34:02;;;;;;;7.43;6.82;;;21.70;75.30;;;;;;4174884;28;20045;-60
2021/09/14 09:36:30;;;;;;;8.40;6.30;;;21.70;75.70;;;;;;4190756;28;20417;-60
2021/09/14 09:38:57;;;;;;;6.38;5.80;;;21.70;75.30;;;;;;4179266;28;20186;-60
2021/09/14 09:41:22;;;;;;;7.93;6.60;;;21.80;75.50;;;;;;4183319;28;20053;-60
2021/09/14 09:43:44;;;;;;;7.78;6.97;;;21.70;74.90;;;;;;4191397;28;20041;-62
2021/09/14 09:46:10;;;;;;;9.23;7.25;;;21.70;74.60;;;;;;4177150;28;20131;-59
2021/09/14 09:48:34;;;;;;;7.68;6.95;;;21.80;75.00;;;;;;4174584;28;20056;-59
2021/09/14 09:50:57;;;;;;;6.72;5.90;;;21.70;74.60;;;;;;4191425;28;20041;-60
2021/09/14 09:53:20;;;;;;;8.43;6.72;;;21.80;74.90;;;;;;4190865;28;20080;-60
2021/09/14 09:55:42;;;;;;;9.35;7.32;;;21.80;75.30;;;;;;4189835;28;20041;-59
2021/09/14 09:58:06;;;;;;;6.15;5.47;;;21.80;75.40;;;;;;4190995;28;20040;-61
2021/09/14 10:00:29;;;;;;;6.70;6.15;;;21.80;76.10;;;;;;4191168;28;20056;-60
2021/09/14 10:02:55;;;;;;;7.13;6.45;;;21.80;75.30;;;;;;4191207;28;20041;-61
2021/09/14 10:05:21;;;;;;;7.28;6.57;;;21.80;74.90;;;;;;4174749;28;20049;-61
2021/09/14 10:07:46;;;;;;;6.93;6.30;;;21.80;74.80;;;;;;4172848;28;20049;-61
2021/09/14 10:10:08;;;;;;;6.68;5.97;;;21.80;74.40;;;;;;4173850;28;20506;-61
2021/09/14 10:12:31;;;;;;;8.30;6.13;;;21.80;74.10;;;;;;4174781;28;20045;-60
2021/09/14 10:15:03;;;;;;;6.55;5.55;;;21.90;74.30;;;;;;4171180;28;20139;-60
2021/09/14 10:17:26;;;;;;;7.07;6.40;;;21.90;74.00;;;;;;4173970;28;20045;-62
2021/09/14 10:19:49;;;;;;;5.53;5.13;;;21.80;73.40;;;;;;4174999;28;20121;-61
2021/09/14 10:22:11;;;;;;;9.45;5.93;;;21.80;74.10;;;;;;4191058;28;20072;-61
2021/09/14 10:24:36;;;;;;;6.55;5.50;;;21.80;74.60;;;;;;4190654;28;20044;-60
2021/09/14 10:27:06;;;;;;;6.80;6.10;;;21.80;74.60;;;;;;4190945;28;20052;-61
2021/09/14 10:29:28;;;;;;;8.13;5.85;;;21.80;74.00;;;;;;4190555;28;20406;-60
2021/09/14 10:32:01;;;;;;;6.60;6.07;;;21.80;74.40;;;;;;4191106;28;20061;-60
2021/09/14 10:34:23;;;;;;;6.50;5.90;;;21.80;73.90;;;;;;4190670;28;20761;-59
2021/09/14 10:37:00;;;;;;;6.25;5.70;;;21.80;74.40;;;;;;4173395;28;20091;-60
2021/09/14 10:39:24;;;;;;;7.70;6.40;;;21.80;74.70;;;;;;4189076;28;20510;-60
2021/09/14 10:41:49;;;;;;;6.40;5.63;;;21.70;74.70;;;;;;4191104;28;20414;-60
2021/09/14 10:44:11;;;;;;;6.38;5.43;;;21.80;75.00;;;;;;4176935;28;20044;-59
2021/09/14 10:46:34;;;;;;;6.95;6.32;;;21.70;75.10;;;;;;4190479;28;20049;-59
2021/09/14 10:48:58;;;;;;;5.65;5.10;;;21.70;75.00;;;;;;4188755;28;20068;-59
2021/09/14 10:51:21;;;;;;;5.57;5.07;;;21.70;75.00;;;;;;4191192;28;22280;-60
2021/09/14 10:53:55;;;;;;;7.30;6.03;;;21.70;75.40;;;;;;4190713;28;20131;-59
2021/09/14 10:56:18;;;;;;;6.28;5.57;;;21.80;74.90;;;;;;4190360;28;20106;-58
2021/09/14 10:58:42;;;;;;;7.88;5.55;;;21.80;74.90;;;;;;4186952;28;20049;-61
2021/09/14 11:01:05;;;;;;;5.85;5.35;;;21.80;75.30;;;;;;4173915;28;20422;-61
2021/09/14 11:03:27;;;;;;;5.90;5.40;;;21.90;75.20;;;;;;4174310;28;20483;-61
2021/09/14 11:05:53;;;;;;;5.88;5.38;;;21.90;75.00;;;;;;4174450;28;20049;-61
2021/09/14 11:08:15;;;;;;;5.63;5.10;;;22.00;74.90;;;;;;4176381;28;20052;-61
2021/09/14 11:10:39;;;;;;;5.00;4.45;;;22.00;74.70;;;;;;4193465;28;20048;-60
2021/09/14 11:13:02;;;;;;;6.32;5.72;;;22.00;74.60;;;;;;4193753;28;20417;-60
2021/09/14 11:15:26;;;;;;;6.18;5.68;;;22.10;74.60;;;;;;4173416;28;20150;-60
2021/09/14 11:17:49;;;;;;;6.22;5.68;;;22.10;74.30;;;;;;4177008;28;20139;-61
2021/09/14 11:20:13;;;;;;;5.28;4.88;;;22.20;74.10;;;;;;4160845;28;20050;-61
2021/09/14 11:22:39;;;;;;;4.72;4.32;;;22.20;73.70;;;;;;4160715;28;20122;-61
2021/09/14 11:25:01;;;;;;;4.88;4.47;;;22.20;72.30;;;;;;4172739;28;20049;-59
2021/09/14 11:27:24;;;;;;;5.60;4.93;;;22.30;71.90;;;;;;4176771;28;20072;-61
2021/09/14 11:29:47;;;;;;;7.30;4.55;;;22.30;72.10;;;;;;4177037;28;20048;-60
2021/09/14 11:32:15;;;;;;;5.00;4.50;;;22.30;72.50;;;;;;4192300;28;20048;-60
2021/09/14 11:34:37;;;;;;;6.10;5.50;;;22.40;72.40;;;;;;4192775;28;20066;-60
2021/09/14 11:36:59;;;;;;;8.85;5.25;;;22.40;71.80;;;;;;4186084;28;20181;-60
2021/09/14 11:39:23;;;;;;;5.18;4.78;;;22.40;72.20;;;;;;4174925;28;20041;-60
2021/09/14 11:41:45;;;;;;;6.10;4.68;;;22.40;72.20;;;;;;4193388;28;20131;-60
2021/09/14 11:44:08;;;;;;;5.88;5.35;;;22.40;72.70;;;;;;4193248;28;20145;-60
2021/09/14 11:46:33;;;;;;;7.20;5.10;;;22.40;73.00;;;;;;4191883;28;20055;-61
2021/09/14 11:48:58;;;;;;;5.10;4.70;;;22.50;72.60;;;;;;4191506;28;20048;-61
2021/09/14 11:51:20;;;;;;;6.05;4.82;;;22.50;72.30;;;;;;4193002;28;20048;-61
2021/09/14 11:53:49;;;;;;;5.82;5.32;;;22.50;71.80;;;;;;4192860;28;20422;-61
2021/09/14 11:56:14;;;;;;;6.32;5.70;;;22.60;71.70;;;;;;4193244;28;20501;-60
2021/09/14 11:58:37;;;;;;;5.25;4.82;;;22.60;71.30;;;;;;4192817;28;20469;-61
2021/09/14 12:01:06;;;;;;;5.65;5.15;;;22.60;71.60;;;;;;4192687;28;20453;-61
2021/09/14 12:03:36;;;;;;;5.65;5.20;;;22.60;71.90;;;;;;4193374;28;20048;-60
2021/09/14 12:05:58;;;;;;;6.28;5.78;;;22.60;72.00;;;;;;4192968;28;20064;-60
2021/09/14 12:08:29;;;;;;;7.80;5.07;;;22.70;72.00;;;;;;4192663;28;20052;-61
2021/09/14 12:10:53;;;;;;;4.97;4.57;;;22.70;72.00;;;;;;4192716;28;20076;-60
2021/09/14 12:13:18;;;;;;;6.25;5.68;;;22.70;72.10;;;;;;4192852;28;20805;-61
2021/09/14 12:15:40;;;;;;;5.50;4.97;;;22.70;71.30;;;;;;4192894;28;20551;-60
2021/09/14 12:18:05;;;;;;;5.70;5.15;;;22.70;71.50;;;;;;4192829;28;20056;-59
2021/09/14 12:20:27;;;;;;;5.30;4.95;;;22.70;71.10;;;;;;4192657;28;20419;-60
2021/09/14 12:22:50;;;;;;;7.53;5.82;;;22.80;71.10;;;;;;4192858;28;20045;-61
2021/09/14 12:25:12;;;;;;;5.93;5.32;;;22.80;72.10;;;;;;4192312;28;20479;-61
2021/09/14 12:27:35;;;;;;;6.78;6.18;;;22.80;71.30;;;;;;4192364;28;20075;-60
2021/09/14 12:29:58;;;;;;;6.85;5.97;;;22.90;70.70;;;;;;4192732;28;20545;-60
2021/09/14 12:32:21;;;;;;;6.68;5.05;;;22.80;71.00;;;;;;4191543;28;20048;-61
2021/09/14 12:34:43;;;;;;;5.70;5.07;;;22.90;71.00;;;;;;4191407;28;20076;-61
2021/09/14 12:37:06;;;;;;;5.63;5.15;;;22.90;71.60;;;;;;4186095;28;20059;-61
2021/09/14 12:39:29;;;;;;;5.20;4.57;;;22.90;71.70;;;;;;4190285;28;20052;-64
2021/09/14 12:41:51;;;;;;;6.38;5.88;;;22.90;71.80;;;;;;4183159;28;20054;-60
2021/09/14 12:44:14;;;;;;;5.47;4.97;;;22.90;71.30;;;;;;4181722;28;20052;-61
2021/09/14 12:46:37;;;;;;;5.15;4.75;;;22.90;70.70;;;;;;4174871;28;20059;-59
2021/09/14 12:48:59;;;;;;;6.13;5.65;;;22.90;71.20;;;;;;4175326;28;20123;-60
2021/09/14 12:51:22;;;;;;;5.63;5.05;;;23.00;71.30;;;;;;4174359;28;20045;-61
2021/09/14 12:53:44;;;;;;;5.72;5.15;;;23.00;70.70;;;;;;4175060;28;20392;-60
2021/09/14 12:56:07;;;;;;;5.93;5.38;;;22.90;71.40;;;;;;4175296;28;20517;-60
2021/09/14 12:58:35;;;;;;;6.25;5.40;;;23.00;72.00;;;;;;4175812;28;20055;-61
2021/09/14 13:00:58;;;;;;;6.13;5.47;;;23.00;71.20;;;;;;4191893;28;20064;-62
2021/09/14 13:03:21;;;;;;;6.38;5.88;;;23.00;70.60;;;;;;4191597;28;20048;-61
2021/09/14 13:05:44;;;;;;;6.00;5.15;;;23.00;70.30;;;;;;4191290;28;20056;-61
2021/09/14 13:08:06;;;;;;;5.05;4.65;;;23.10;70.30;;;;;;4175485;28;20099;-59
2021/09/14 13:10:28;;;;;;;5.90;5.32;;;23.10;70.90;;;;;;4181030;28;20482;-61
2021/09/14 13:16:09;;;;;;;6.55;5.95;;;23.10;71.10;;;;;;4191703;28;20521;-61